createdAt,value
2019-02-16T00:01:30.285Z,90.44
2019-02-16T00:03:30.340Z,90.65
2019-02-16T00:05:30.146Z,90.58
2019-02-16T00:07:30.151Z,90.81
2019-02-16T00:09:30.385Z,90.53
2019-02-16T00:11:30.392Z,90.99
2019-02-16T00:13:30.541Z,91.34
2019-02-16T00:15:30.201Z,91.62
2019-02-16T00:17:30.128Z,91.58
2019-02-16T00:19:30.163Z,91.72
2019-02-16T00:21:30.359Z,91.45
2019-02-16T00:23:30.371Z,91.46
2019-02-16T00:25:30.471Z,91.78
2019-02-16T00:27:30.221Z,91.49
2019-02-16T00:29:30.503Z,91.48
2019-02-16T00:31:30.048Z,91.75
2019-02-16T00:33:30.264Z,91.70
2019-02-16T00:35:30.322Z,91.71
2019-02-16T00:37:30.539Z,91.90
2019-02-16T00:39:30.274Z,91.56
2019-02-16T00:41:30.352Z,92.02
2019-02-16T00:43:30.160Z,91.92
2019-02-16T00:45:30.148Z,91.75
2019-02-16T00:47:30.287Z,91.73
2019-02-16T00:49:30.613Z,92.12
2019-02-16T00:51:30.388Z,91.92
2019-02-16T00:53:30.373Z,91.81
2019-02-16T00:55:30.387Z,91.94
2019-02-16T00:57:30.446Z,92.00
2019-02-16T00:59:30.465Z,91.96
2019-02-16T01:01:30.269Z,92.41
2019-02-16T01:03:30.255Z,92.13
2019-02-16T01:05:30.287Z,92.44
2019-02-16T01:07:30.305Z,92.28
2019-02-16T01:09:30.300Z,92.57
2019-02-16T01:11:30.338Z,92.61
2019-02-16T01:13:30.094Z,92.76
2019-02-16T01:15:30.349Z,92.65
2019-02-16T01:17:30.068Z,92.67
2019-02-16T01:19:30.171Z,92.86
2019-02-16T01:21:30.380Z,92.92
2019-02-16T01:23:30.567Z,93.10
2019-02-16T01:25:30.513Z,93.19
2019-02-16T01:27:30.627Z,93.12
2019-02-16T01:29:30.230Z,93.18
2019-02-16T01:31:30.241Z,93.17
2019-02-16T01:33:31.291Z,93.12
2019-02-16T01:35:30.462Z,93.29
2019-02-16T01:37:30.474Z,93.19
2019-02-16T01:39:30.490Z,93.46
2019-02-16T01:41:30.507Z,93.17
2019-02-16T01:43:30.234Z,93.59
2019-02-16T01:45:30.311Z,93.43
2019-02-16T01:47:30.326Z,93.29
2019-02-16T01:49:30.127Z,93.47
2019-02-16T01:51:32.221Z,93.39
2019-02-16T01:53:30.334Z,93.62
2019-02-16T01:55:30.170Z,93.67
2019-02-16T01:57:30.177Z,93.50
2019-02-16T01:59:30.203Z,93.65
2019-02-16T02:01:30.413Z,93.48
2019-02-16T02:03:30.389Z,93.74
2019-02-16T02:05:30.435Z,93.67
2019-02-16T02:07:30.440Z,93.62
2019-02-16T02:09:30.197Z,93.75
2019-02-16T02:11:30.477Z,93.70
2019-02-16T02:13:30.417Z,93.89
2019-02-16T02:15:30.489Z,93.86
2019-02-16T02:17:30.505Z,94.00
2019-02-16T02:19:30.272Z,93.87
2019-02-16T02:21:30.303Z,94.03
2019-02-16T02:23:30.336Z,93.86
2019-02-16T02:25:30.096Z,94.01
2019-02-16T02:27:30.362Z,93.98
2019-02-16T02:29:30.162Z,94.20
2019-02-16T02:31:30.175Z,94.16
2019-02-16T02:33:30.409Z,94.38
2019-02-16T02:35:30.363Z,94.06
2019-02-16T02:37:30.416Z,94.55
2019-02-16T02:39:30.428Z,94.09
2019-02-16T02:41:30.225Z,94.08
2019-02-16T02:43:31.670Z,94.42
2019-02-16T02:45:30.256Z,94.24
2019-02-16T02:47:30.213Z,94.45
2019-02-16T02:49:33.157Z,94.40
2019-02-16T02:51:30.496Z,94.21
2019-02-16T02:53:31.561Z,94.55
2019-02-16T02:55:30.070Z,94.32
2019-02-16T02:57:30.535Z,94.52
2019-02-16T02:59:30.309Z,94.50
2019-02-16T03:01:30.336Z,94.37
2019-02-16T03:03:30.362Z,94.33
2019-02-16T03:05:33.347Z,94.50
2019-02-16T03:07:30.380Z,94.55
2019-02-16T03:09:30.394Z,94.34
2019-02-16T03:11:30.618Z,94.49
2019-02-16T03:13:30.161Z,94.81
2019-02-16T03:15:30.425Z,95.03
2019-02-16T03:17:30.464Z,94.44
2019-02-16T03:19:30.248Z,94.52
2019-02-16T03:21:30.581Z,94.76
2019-02-16T03:23:30.191Z,94.84
2019-02-16T03:25:30.078Z,94.60
2019-02-16T03:27:30.072Z,94.79
2019-02-16T03:29:30.098Z,94.86
2019-02-16T03:31:30.314Z,94.75
2019-02-16T03:33:30.332Z,94.51
2019-02-16T03:35:30.335Z,94.77
2019-02-16T03:37:33.127Z,94.65
2019-02-16T03:39:30.162Z,94.87
2019-02-16T03:41:30.122Z,94.96
2019-02-16T03:43:30.179Z,95.05
2019-02-16T03:45:30.347Z,94.79
2019-02-16T03:47:30.405Z,94.93
2019-02-16T03:49:30.417Z,94.93
2019-02-16T03:51:30.633Z,95.06
2019-02-16T03:53:30.544Z,94.84
2019-02-16T03:55:30.355Z,95.00
2019-02-16T03:57:30.396Z,94.78
2019-02-16T03:59:30.196Z,95.45
2019-02-16T04:01:30.405Z,95.15
2019-02-16T04:03:30.075Z,94.90
2019-02-16T04:05:30.308Z,94.91
2019-02-16T04:07:30.451Z,95.21
2019-02-16T04:09:30.471Z,95.24
2019-02-16T04:11:30.298Z,94.99
2019-02-16T04:13:30.149Z,94.96
2019-02-16T04:15:30.362Z,95.27
2019-02-16T04:17:30.378Z,95.18
2019-02-16T04:19:30.387Z,95.40
2019-02-16T04:21:30.328Z,95.32
2019-02-16T04:23:30.408Z,95.43
2019-02-16T04:25:30.410Z,95.48
2019-02-16T04:27:30.204Z,95.45
2019-02-16T04:29:30.447Z,96.18
2019-02-16T04:31:30.461Z,96.04
2019-02-16T04:33:30.470Z,95.89
2019-02-16T04:35:30.272Z,95.87
2019-02-16T04:37:30.493Z,96.29
2019-02-16T04:39:30.426Z,96.05
2019-02-16T04:41:30.723Z,96.16
2019-02-16T04:43:30.529Z,96.21
2019-02-16T04:45:30.334Z,95.99
2019-02-16T04:47:30.554Z,96.25
2019-02-16T04:49:30.770Z,95.71
2019-02-16T04:51:30.577Z,95.90
2019-02-16T04:53:30.198Z,95.99
2019-02-16T04:55:30.138Z,95.78
2019-02-16T04:57:30.335Z,96.09
2019-02-16T04:59:30.210Z,95.86
2019-02-16T05:01:30.134Z,96.16
2019-02-16T05:03:30.390Z,95.84
2019-02-16T05:05:30.452Z,96.16
2019-02-16T05:07:30.431Z,96.13
2019-02-16T05:09:30.467Z,96.18
2019-02-16T05:11:30.273Z,96.00
2019-02-16T05:13:30.502Z,96.20
2019-02-16T05:15:31.715Z,95.96
2019-02-16T05:17:30.308Z,96.11
2019-02-16T05:19:30.496Z,96.23
2019-02-16T05:21:30.794Z,96.43
2019-02-16T05:23:30.755Z,96.08
2019-02-16T05:25:30.679Z,96.28
2019-02-16T05:27:30.373Z,96.63
2019-02-16T05:29:30.582Z,96.54
2019-02-16T05:31:30.391Z,96.67
2019-02-16T05:33:30.347Z,96.67
2019-02-16T05:35:30.211Z,96.45
2019-02-16T05:37:30.618Z,96.71
2019-02-16T05:39:30.434Z,96.46
2019-02-16T05:41:30.387Z,96.60
2019-02-16T05:43:30.456Z,96.60
2019-02-16T05:45:30.272Z,96.42
2019-02-16T05:47:30.489Z,96.30
2019-02-16T05:49:30.503Z,96.28
2019-02-16T05:51:30.502Z,96.32
2019-02-16T05:53:30.231Z,96.69
2019-02-16T05:55:30.223Z,96.81
2019-02-16T05:57:30.337Z,96.53
2019-02-16T05:59:30.557Z,96.43
2019-02-16T06:01:30.493Z,96.41
2019-02-16T06:03:30.531Z,96.63
2019-02-16T06:05:30.590Z,96.90
2019-02-16T06:07:30.395Z,96.77
2019-02-16T06:09:30.609Z,96.82
2019-02-16T06:11:30.422Z,97.03
2019-02-16T06:13:30.519Z,96.79
2019-02-16T06:15:30.440Z,96.81
2019-02-16T06:17:30.458Z,96.77
2019-02-16T06:19:30.459Z,96.83
2019-02-16T06:21:30.415Z,97.02
2019-02-16T06:23:30.213Z,97.09
2019-02-16T06:25:30.499Z,97.04
2019-02-16T06:27:30.271Z,97.03
2019-02-16T06:29:30.426Z,97.27
2019-02-16T06:31:30.462Z,97.30
2019-02-16T06:33:30.479Z,97.33
2019-02-16T06:35:30.780Z,97.26
2019-02-16T06:37:30.284Z,97.17
2019-02-16T06:39:30.575Z,97.34
2019-02-16T06:41:31.137Z,97.15
2019-02-16T06:43:30.527Z,97.40
2019-02-16T06:45:30.407Z,97.47
2019-02-16T06:47:30.213Z,97.64
2019-02-16T06:49:30.146Z,97.69
2019-02-16T06:51:30.362Z,97.63
2019-02-16T06:53:30.370Z,97.67
2019-02-16T06:55:30.397Z,97.87
2019-02-16T06:57:30.683Z,97.54
2019-02-16T06:59:30.407Z,97.51
2019-02-16T07:01:30.400Z,97.60
2019-02-16T07:03:30.280Z,97.74
2019-02-16T07:05:30.400Z,97.66
2019-02-16T07:07:30.268Z,98.09
2019-02-16T07:09:30.316Z,98.29
2019-02-16T07:11:30.358Z,98.04
2019-02-16T07:13:30.476Z,97.99
2019-02-16T07:15:30.585Z,97.82
2019-02-16T07:17:30.521Z,97.49
2019-02-16T07:19:30.360Z,97.08
2019-02-16T07:21:30.618Z,96.40
2019-02-16T07:23:30.372Z,95.65
2019-02-16T07:25:30.363Z,95.06
2019-02-16T07:27:30.649Z,94.42
2019-02-16T07:29:30.930Z,93.84
2019-02-16T07:31:30.466Z,93.27
2019-02-16T07:33:30.228Z,92.84
2019-02-16T07:35:30.214Z,92.41
2019-02-16T07:37:30.464Z,91.22
2019-02-16T07:39:30.511Z,90.13
2019-02-16T07:41:31.705Z,89.39
2019-02-16T07:43:30.533Z,87.91
2019-02-16T07:45:30.315Z,87.43
2019-02-16T07:47:30.352Z,86.46
2019-02-16T07:49:30.582Z,85.20
2019-02-16T07:51:30.581Z,84.51
2019-02-16T07:53:31.609Z,82.92
2019-02-16T07:55:30.398Z,81.51
2019-02-16T07:57:30.391Z,81.34
2019-02-16T07:59:30.633Z,80.55
2019-02-16T08:01:30.556Z,79.25
2019-02-16T08:03:30.654Z,77.89
2019-02-16T08:05:30.475Z,76.63
2019-02-16T08:07:30.649Z,76.34
2019-02-16T08:09:30.660Z,75.67
2019-02-16T08:11:31.321Z,74.76
2019-02-16T08:13:30.504Z,73.36
2019-02-16T08:15:30.629Z,71.90
2019-02-16T08:17:30.523Z,72.35
2019-02-16T08:19:30.681Z,69.67
2019-02-16T08:21:30.762Z,68.15
2019-02-16T08:23:30.363Z,68.83
2019-02-16T08:25:30.478Z,70.25
2019-02-16T08:27:30.587Z,70.32
2019-02-16T08:29:30.555Z,71.38
2019-02-16T08:31:30.575Z,71.49
2019-02-16T08:33:30.625Z,72.81
2019-02-16T08:35:30.393Z,71.61
2019-02-16T08:37:30.643Z,70.58
2019-02-16T08:39:30.651Z,70.81
2019-02-16T08:41:31.278Z,71.04
2019-02-16T08:43:30.406Z,71.29
2019-02-16T08:45:30.893Z,71.20
2019-02-16T08:47:30.702Z,70.14
2019-02-16T08:49:30.627Z,69.72
2019-02-16T08:51:30.696Z,69.00
2019-02-16T08:53:30.700Z,68.91
2019-02-16T08:55:30.463Z,69.27
2019-02-16T08:57:30.559Z,68.70
2019-02-16T08:59:30.283Z,68.36
2019-02-16T09:01:30.473Z,68.50
2019-02-16T09:03:30.523Z,69.01
2019-02-16T09:05:30.598Z,68.18
2019-02-16T09:07:30.508Z,68.85
2019-02-16T09:09:30.629Z,69.12
2019-02-16T09:11:30.427Z,69.31
2019-02-16T09:13:30.383Z,68.98
2019-02-16T09:15:30.614Z,68.55
2019-02-16T09:17:30.430Z,68.53
2019-02-16T09:19:30.889Z,68.52
2019-02-16T09:21:30.463Z,68.30
2019-02-16T09:23:30.507Z,67.84
2019-02-16T09:25:30.643Z,68.18
2019-02-16T09:27:30.720Z,67.57
2019-02-16T09:29:30.739Z,66.73
2019-02-16T09:31:30.501Z,66.99
2019-02-16T09:33:30.760Z,65.93
2019-02-16T09:35:30.701Z,66.14
2019-02-16T09:37:30.553Z,65.38
2019-02-16T09:39:30.395Z,64.96
2019-02-16T09:41:30.614Z,64.32
2019-02-16T09:43:30.403Z,63.20
2019-02-16T09:45:30.627Z,61.63
2019-02-16T09:47:30.518Z,62.71
2019-02-16T09:49:30.402Z,61.59
2019-02-16T09:51:30.662Z,61.47
2019-02-16T09:53:30.673Z,61.15
2019-02-16T09:55:30.680Z,61.38
2019-02-16T09:57:30.691Z,62.24
2019-02-16T09:59:30.704Z,62.31
2019-02-16T10:01:30.670Z,62.93
2019-02-16T10:03:30.659Z,63.06
2019-02-16T10:05:30.642Z,62.77
2019-02-16T10:07:30.753Z,62.38
2019-02-16T10:09:30.896Z,63.20
2019-02-16T10:11:30.787Z,63.28
2019-02-16T10:13:30.581Z,63.16
2019-02-16T10:15:31.005Z,63.44
2019-02-16T10:17:30.790Z,62.46
2019-02-16T10:19:30.824Z,61.96
2019-02-16T10:21:30.600Z,62.16
2019-02-16T10:23:30.854Z,61.89
2019-02-16T10:25:30.443Z,62.27
2019-02-16T10:27:30.640Z,61.59
2019-02-16T10:29:30.877Z,61.22
2019-02-16T10:31:30.682Z,61.26
2019-02-16T10:33:30.696Z,61.48
2019-02-16T10:35:30.675Z,62.36
2019-02-16T10:37:30.660Z,60.57
2019-02-16T10:39:30.530Z,61.11
2019-02-16T10:41:30.748Z,61.19
2019-02-16T10:43:31.108Z,61.19
2019-02-16T10:45:30.746Z,62.10
2019-02-16T10:47:30.484Z,61.76
2019-02-16T10:49:30.790Z,62.04
2019-02-16T10:51:30.796Z,62.05
2019-02-16T10:53:30.783Z,62.44
2019-02-16T10:55:30.727Z,61.64
2019-02-16T10:57:30.833Z,61.40
2019-02-16T10:59:30.845Z,62.41
2019-02-16T11:01:30.843Z,62.31
2019-02-16T11:03:30.869Z,61.51
2019-02-16T11:05:30.689Z,61.10
2019-02-16T11:07:30.805Z,60.86
2019-02-16T11:09:30.910Z,61.00
2019-02-16T11:11:30.516Z,60.99
2019-02-16T11:13:30.730Z,60.83
2019-02-16T11:15:30.745Z,61.01
2019-02-16T11:17:30.751Z,59.99
2019-02-16T11:19:30.656Z,59.66
2019-02-16T11:21:30.730Z,60.13
2019-02-16T11:23:30.595Z,60.34
2019-02-16T11:25:30.589Z,59.97
2019-02-16T11:27:30.711Z,60.79
2019-02-16T11:29:30.556Z,60.65
2019-02-16T11:31:30.831Z,61.00
2019-02-16T11:33:30.842Z,60.72
2019-02-16T11:35:30.848Z,59.81
2019-02-16T11:37:30.871Z,59.80
2019-02-16T11:39:30.825Z,57.77
2019-02-16T11:41:30.625Z,58.34
2019-02-16T11:43:30.893Z,58.18
2019-02-16T11:45:32.662Z,58.16
2019-02-16T11:47:30.719Z,58.18
2019-02-16T11:49:30.935Z,57.31
2019-02-16T11:51:30.891Z,55.74
2019-02-16T11:53:30.746Z,57.13
2019-02-16T11:55:30.907Z,55.60
2019-02-16T11:57:30.573Z,56.18
2019-02-16T11:59:30.787Z,55.68
2019-02-16T12:01:30.802Z,55.45
2019-02-16T12:03:30.813Z,55.99
2019-02-16T12:05:30.824Z,55.88
2019-02-16T12:07:30.832Z,55.92
2019-02-16T12:09:30.625Z,55.67
2019-02-16T12:11:31.064Z,55.09
2019-02-16T12:13:30.611Z,54.98
2019-02-16T12:15:30.878Z,54.50
2019-02-16T12:17:30.749Z,55.09
2019-02-16T12:19:30.664Z,55.21
2019-02-16T12:21:30.836Z,55.46
2019-02-16T12:23:31.127Z,55.46
2019-02-16T12:25:30.841Z,55.40
2019-02-16T12:27:30.873Z,55.21
2019-02-16T12:29:30.893Z,55.06
2019-02-16T12:31:30.663Z,55.28
2019-02-16T12:33:30.942Z,55.12
2019-02-16T12:35:30.788Z,54.52
2019-02-16T12:37:30.522Z,54.01
2019-02-16T12:39:30.790Z,53.86
2019-02-16T12:41:31.170Z,53.75
2019-02-16T12:43:30.788Z,53.63
2019-02-16T12:45:30.852Z,53.24
2019-02-16T12:47:31.110Z,53.08
2019-02-16T12:49:30.870Z,52.78
2019-02-16T12:51:30.876Z,52.71
2019-02-16T12:53:30.845Z,51.54
2019-02-16T12:55:30.903Z,51.85
2019-02-16T12:57:30.919Z,51.43
2019-02-16T12:59:30.727Z,51.77
2019-02-16T13:01:30.739Z,52.46
2019-02-16T13:03:30.898Z,51.92
2019-02-16T13:05:30.973Z,52.07
2019-02-16T13:07:30.787Z,51.50
2019-02-16T13:09:31.200Z,51.93
2019-02-16T13:11:30.806Z,52.26
2019-02-16T13:13:31.228Z,52.55
2019-02-16T13:15:30.957Z,52.56
2019-02-16T13:17:33.609Z,52.34
2019-02-16T13:19:30.939Z,52.60
2019-02-16T13:21:30.691Z,53.41
2019-02-16T13:23:30.610Z,53.40
2019-02-16T13:25:30.881Z,52.55
2019-02-16T13:27:30.738Z,51.46
2019-02-16T13:29:30.906Z,52.02
2019-02-16T13:31:30.711Z,52.10
2019-02-16T13:33:30.866Z,51.09
2019-02-16T13:35:30.735Z,50.96
2019-02-16T13:37:30.852Z,51.58
2019-02-16T13:39:31.121Z,52.19
2019-02-16T13:41:30.919Z,52.33
2019-02-16T13:43:30.997Z,51.87
2019-02-16T13:45:33.000Z,51.83
2019-02-16T13:47:30.950Z,52.28
2019-02-16T13:49:30.937Z,51.99
2019-02-16T13:51:30.791Z,52.57
2019-02-16T13:53:31.044Z,52.45
2019-02-16T13:55:33.499Z,52.21
2019-02-16T13:57:30.862Z,52.09
2019-02-16T13:59:30.672Z,52.49
2019-02-16T14:01:30.674Z,52.76
2019-02-16T14:03:31.021Z,52.88
2019-02-16T14:05:30.701Z,52.57
2019-02-16T14:07:30.711Z,52.45
2019-02-16T14:09:30.786Z,51.89
2019-02-16T14:11:30.954Z,51.24
2019-02-16T14:13:31.052Z,50.26
2019-02-16T14:15:30.759Z,50.42
2019-02-16T14:17:30.676Z,50.57
2019-02-16T14:19:30.907Z,50.75
2019-02-16T14:21:31.010Z,51.33
2019-02-16T14:23:30.958Z,51.68
2019-02-16T14:25:30.832Z,50.99
2019-02-16T14:27:30.963Z,50.76
2019-02-16T14:29:31.049Z,50.27
2019-02-16T14:31:30.851Z,50.43
2019-02-16T14:33:31.051Z,50.19
2019-02-16T14:35:30.892Z,49.69
2019-02-16T14:37:31.094Z,49.43
2019-02-16T14:39:30.799Z,49.54
2019-02-16T14:41:30.655Z,49.81
2019-02-16T14:43:30.644Z,49.26
2019-02-16T14:45:30.948Z,49.43
2019-02-16T14:47:30.876Z,49.84
2019-02-16T14:49:31.168Z,49.73
2019-02-16T14:51:30.767Z,49.57
2019-02-16T14:53:31.188Z,49.49
2019-02-16T14:55:30.805Z,49.48
2019-02-16T14:57:30.978Z,50.08
2019-02-16T14:59:31.019Z,49.63
2019-02-16T15:01:31.002Z,49.40
2019-02-16T15:03:31.137Z,49.30
2019-02-16T15:05:31.014Z,49.47
2019-02-16T15:07:31.069Z,49.90
2019-02-16T15:09:30.834Z,50.16
2019-02-16T15:11:30.886Z,49.85
2019-02-16T15:13:31.105Z,50.24
2019-02-16T15:15:30.712Z,50.41
2019-02-16T15:17:30.712Z,50.85
2019-02-16T15:19:30.936Z,50.99
2019-02-16T15:21:30.707Z,51.06
2019-02-16T15:23:30.750Z,51.02
2019-02-16T15:25:31.314Z,51.60
2019-02-16T15:27:31.182Z,51.06
2019-02-16T15:29:31.284Z,51.08
2019-02-16T15:31:30.760Z,51.16
2019-02-16T15:33:30.753Z,51.12
2019-02-16T15:35:30.827Z,51.40
2019-02-16T15:37:30.806Z,51.21
2019-02-16T15:39:31.257Z,51.37
2019-02-16T15:41:30.970Z,51.48
2019-02-16T15:43:31.075Z,51.67
2019-02-16T15:45:30.819Z,52.06
2019-02-16T15:47:30.896Z,52.29
2019-02-16T15:49:30.892Z,53.11
2019-02-16T15:51:31.041Z,53.82
2019-02-16T15:53:31.141Z,54.40
2019-02-16T15:55:30.691Z,54.71
2019-02-16T15:57:30.882Z,55.45
2019-02-16T15:59:35.240Z,56.03
2019-02-16T16:01:30.986Z,56.35
2019-02-16T16:03:31.112Z,56.56
2019-02-16T16:05:30.769Z,56.99
2019-02-16T16:07:31.008Z,57.49
2019-02-16T16:09:30.777Z,58.53
2019-02-16T16:11:30.972Z,58.26
2019-02-16T16:13:31.002Z,59.01
2019-02-16T16:15:31.217Z,59.03
2019-02-16T16:17:31.070Z,59.36
2019-02-16T16:19:30.953Z,59.25
2019-02-16T16:21:30.890Z,59.80
2019-02-16T16:23:30.903Z,60.16
2019-02-16T16:25:30.988Z,60.09
2019-02-16T16:27:30.924Z,60.56
2019-02-16T16:29:31.037Z,60.72
2019-02-16T16:31:30.957Z,61.40
2019-02-16T16:33:31.161Z,61.77
2019-02-16T16:35:30.969Z,61.74
2019-02-16T16:37:30.984Z,62.74
2019-02-16T16:39:30.896Z,63.30
2019-02-16T16:41:31.115Z,63.13
2019-02-16T16:43:31.018Z,63.37
2019-02-16T16:45:31.027Z,64.73
2019-02-16T16:47:31.049Z,64.43
2019-02-16T16:49:31.259Z,64.56
2019-02-16T16:51:30.850Z,64.68
2019-02-16T16:53:31.371Z,65.53
2019-02-16T16:55:31.083Z,66.11
2019-02-16T16:57:31.009Z,65.88
2019-02-16T16:59:30.914Z,66.58
2019-02-16T17:01:31.005Z,67.25
2019-02-16T17:03:31.137Z,67.68
2019-02-16T17:05:32.173Z,67.24
2019-02-16T17:07:31.364Z,68.03
2019-02-16T17:09:30.971Z,68.30
2019-02-16T17:11:32.212Z,68.81
2019-02-16T17:13:30.991Z,69.44
2019-02-16T17:15:31.001Z,69.87
2019-02-16T17:17:30.809Z,69.90
2019-02-16T17:19:31.118Z,70.18
2019-02-16T17:21:31.041Z,70.55
2019-02-16T17:23:30.841Z,70.88
2019-02-16T17:25:31.264Z,71.35
2019-02-16T17:27:30.862Z,71.57
2019-02-16T17:29:30.795Z,71.88
2019-02-16T17:31:31.304Z,72.28
2019-02-16T17:33:30.902Z,72.72
2019-02-16T17:35:31.522Z,73.10
2019-02-16T17:37:31.483Z,73.61
2019-02-16T17:39:31.142Z,73.72
2019-02-16T17:41:30.950Z,74.53
2019-02-16T17:43:31.165Z,74.77
2019-02-16T17:45:31.178Z,74.17
2019-02-16T17:47:30.981Z,75.05
2019-02-16T17:49:31.076Z,75.68
2019-02-16T17:51:31.430Z,75.26
2019-02-16T17:53:30.942Z,75.72
2019-02-16T17:55:30.827Z,75.58
2019-02-16T17:57:31.342Z,75.71
2019-02-16T17:59:31.059Z,75.93
2019-02-16T18:01:31.661Z,75.98
2019-02-16T18:03:31.278Z,76.35
2019-02-16T18:05:31.250Z,76.77
2019-02-16T18:07:31.302Z,77.16
2019-02-16T18:09:31.472Z,77.38
2019-02-16T18:11:31.661Z,77.42
2019-02-16T18:13:31.678Z,77.53
2019-02-16T18:15:31.143Z,78.22
2019-02-16T18:17:31.587Z,78.02
2019-02-16T18:19:31.387Z,78.39
2019-02-16T18:21:31.376Z,78.58
2019-02-16T18:23:31.196Z,78.79
2019-02-16T18:25:31.553Z,79.07
2019-02-16T18:27:31.430Z,79.34
2019-02-16T18:29:31.367Z,79.11
2019-02-16T18:31:31.236Z,79.77
2019-02-16T18:33:31.189Z,79.67
2019-02-16T18:35:31.496Z,79.95
2019-02-16T18:37:31.514Z,79.67
2019-02-16T18:39:31.307Z,79.53
2019-02-16T18:41:32.114Z,80.04
2019-02-16T18:43:31.108Z,80.26
2019-02-16T18:45:30.934Z,80.70
2019-02-16T18:47:31.555Z,80.75
2019-02-16T18:49:31.448Z,81.18
2019-02-16T18:51:31.566Z,81.60
2019-02-16T18:53:31.505Z,82.06
2019-02-16T18:55:31.393Z,82.18
2019-02-16T18:57:31.603Z,82.08
2019-02-16T18:59:31.521Z,83.08
2019-02-16T19:01:31.389Z,83.35
2019-02-16T19:03:31.420Z,83.66
2019-02-16T19:05:32.060Z,83.95
2019-02-16T19:07:31.430Z,83.79
2019-02-16T19:09:31.471Z,83.35
2019-02-16T19:11:33.044Z,83.93
2019-02-16T19:13:31.898Z,83.59
2019-02-16T19:15:31.717Z,83.66
2019-02-16T19:17:31.509Z,83.99
2019-02-16T19:19:31.063Z,84.56
2019-02-16T19:21:31.535Z,84.51
2019-02-16T19:23:32.487Z,84.77
2019-02-16T19:25:31.466Z,84.78
2019-02-16T19:27:31.446Z,85.26
2019-02-16T19:29:31.791Z,85.41
2019-02-16T19:31:31.588Z,85.26
2019-02-16T19:33:31.599Z,85.11
2019-02-16T19:35:31.616Z,85.09
2019-02-16T19:37:31.623Z,85.38
2019-02-16T19:39:31.653Z,85.11
2019-02-16T19:41:31.654Z,85.43
2019-02-16T19:43:31.659Z,85.44
2019-02-16T19:45:31.064Z,84.80
2019-02-16T19:47:31.689Z,85.16
2019-02-16T19:49:31.082Z,85.07
2019-02-16T19:51:31.301Z,85.08
2019-02-16T19:53:31.105Z,85.20
2019-02-16T19:55:31.447Z,85.38
2019-02-16T19:57:31.324Z,85.61
2019-02-16T19:59:31.552Z,85.68
2019-02-16T20:01:30.952Z,85.58
2019-02-16T20:03:31.362Z,85.84
2019-02-16T20:05:31.120Z,86.01
2019-02-16T20:07:31.191Z,86.33
2019-02-16T20:09:31.205Z,86.47
2019-02-16T20:11:31.210Z,86.34
2019-02-16T20:13:31.023Z,86.60
2019-02-16T20:15:31.032Z,86.85
2019-02-16T20:17:31.209Z,86.72
2019-02-16T20:19:31.213Z,87.35
2019-02-16T20:21:31.064Z,87.10
2019-02-16T20:23:31.026Z,87.37
2019-02-16T20:25:30.881Z,87.57
2019-02-16T20:27:37.358Z,87.69
2019-02-16T20:29:31.117Z,87.83
2019-02-16T20:31:31.548Z,88.10
2019-02-16T20:33:31.349Z,87.95
2019-02-16T20:35:30.941Z,88.24
2019-02-16T20:37:30.965Z,88.29
2019-02-16T20:39:31.181Z,88.50
2019-02-16T20:41:31.186Z,88.60
2019-02-16T20:43:33.311Z,88.46
2019-02-16T20:45:31.204Z,88.88
2019-02-16T20:47:31.010Z,89.09
2019-02-16T20:49:30.819Z,89.33
2019-02-16T20:51:30.833Z,89.18
2019-02-16T20:53:31.308Z,89.26
2019-02-16T20:55:32.291Z,89.44
2019-02-16T20:57:30.984Z,89.64
2019-02-16T20:59:30.832Z,89.95
2019-02-16T21:01:32.115Z,89.72
2019-02-16T21:03:31.103Z,89.69
2019-02-16T21:05:31.122Z,89.95
2019-02-16T21:07:31.033Z,89.94
2019-02-16T21:09:32.165Z,90.00
2019-02-16T21:11:30.955Z,90.33
2019-02-16T21:13:30.962Z,90.15
2019-02-16T21:15:30.972Z,90.28
2019-02-16T21:17:32.158Z,90.42
2019-02-16T21:19:31.414Z,90.27
2019-02-16T21:21:31.326Z,90.68
2019-02-16T21:23:31.157Z,91.00
2019-02-16T21:25:31.194Z,91.17
2019-02-16T21:27:30.834Z,91.19
2019-02-16T21:29:31.262Z,91.15
2019-02-16T21:31:30.996Z,91.37
2019-02-16T21:33:31.280Z,91.23
2019-02-16T21:35:31.295Z,91.37
2019-02-16T21:37:31.307Z,91.58
2019-02-16T21:39:30.844Z,91.27
2019-02-16T21:41:31.332Z,91.63
2019-02-16T21:43:31.113Z,91.48
2019-02-16T21:45:31.361Z,91.40
2019-02-16T21:47:33.830Z,91.41
2019-02-16T21:49:31.766Z,91.40
2019-02-16T21:51:31.191Z,91.35
2019-02-16T21:53:31.196Z,91.39
2019-02-16T21:55:31.007Z,91.86
2019-02-16T21:57:31.389Z,91.96
2019-02-16T21:59:31.002Z,92.11
2019-02-16T22:01:33.637Z,91.84
2019-02-16T22:03:30.970Z,91.73
2019-02-16T22:05:31.266Z,91.84
2019-02-16T22:07:30.864Z,92.01
2019-02-16T22:09:31.227Z,92.13
2019-02-16T22:11:31.451Z,91.97
2019-02-16T22:13:31.105Z,91.66
2019-02-16T22:15:31.118Z,92.03
2019-02-16T22:17:31.132Z,92.05
2019-02-16T22:19:31.144Z,92.51
2019-02-16T22:21:31.045Z,92.15
2019-02-16T22:23:31.168Z,92.28
2019-02-16T22:25:31.172Z,92.50
2019-02-16T22:27:31.191Z,92.59
2019-02-16T22:29:31.157Z,92.29
2019-02-16T22:31:31.207Z,92.13
2019-02-16T22:33:31.226Z,92.50
2019-02-16T22:35:31.031Z,92.39
2019-02-16T22:37:33.635Z,92.79
2019-02-16T22:39:30.987Z,92.63
2019-02-16T22:41:31.271Z,93.01
2019-02-16T22:43:31.036Z,93.12
2019-02-16T22:45:31.198Z,93.54
2019-02-16T22:47:31.243Z,92.63
2019-02-16T22:49:30.906Z,92.94
2019-02-16T22:51:31.094Z,93.08
2019-02-16T22:53:31.139Z,93.08
2019-02-16T22:55:30.880Z,93.04
2019-02-16T22:57:30.948Z,93.07
2019-02-16T22:59:30.960Z,93.28
2019-02-16T23:01:31.117Z,93.02
2019-02-16T23:03:31.197Z,93.42
2019-02-16T23:05:31.143Z,93.34
2019-02-16T23:07:31.414Z,93.62
2019-02-16T23:09:31.025Z,93.58
2019-02-16T23:11:31.193Z,93.43
2019-02-16T23:13:30.969Z,93.71
2019-02-16T23:15:31.255Z,94.00
2019-02-16T23:17:31.196Z,93.67
2019-02-16T23:19:31.284Z,94.08
2019-02-16T23:21:31.293Z,94.16
2019-02-16T23:23:31.111Z,94.22
2019-02-16T23:25:31.436Z,94.05
2019-02-16T23:27:31.331Z,94.06
2019-02-16T23:29:31.348Z,94.13
2019-02-16T23:31:31.083Z,93.90
2019-02-16T23:33:31.364Z,94.23
2019-02-16T23:35:31.169Z,94.06
2019-02-16T23:37:31.104Z,94.15
2019-02-16T23:39:31.191Z,94.29
2019-02-16T23:41:31.205Z,94.54
2019-02-16T23:43:31.013Z,94.27
2019-02-16T23:45:31.363Z,94.35
2019-02-16T23:47:31.247Z,94.83
2019-02-16T23:49:31.162Z,94.79
2019-02-16T23:51:31.480Z,94.77
2019-02-16T23:53:31.275Z,94.83
2019-02-16T23:55:31.080Z,94.96
2019-02-16T23:57:31.098Z,94.53
2019-02-16T23:59:31.513Z,94.40
